Time;durP1;ratioP1;P1;durP2;ratioP2;P2;SDS_P1;SDS_P2;PMS_P1;PMS_P2;Temp;Humidity;BMP_temperature;BMP_pressure;BME280_temperature;BME280_humidity;BME280_pressure;Samples;Min_cycle;Max_cycle;Signal;HPM_P1;HPM_P2
2023/12/20 00:01:49;;;;;;;15.70;3.25;;;5.90;99.90;;;;;;4979192;28;20054;-78
2023/12/20 00:04:15;;;;;;;15.93;3.65;;;5.90;99.90;;;;;;4981291;28;20572;-79
2023/12/20 00:06:41;;;;;;;21.38;3.35;;;5.90;99.90;;;;;;4980449;28;20051;-79
2023/12/20 00:09:07;;;;;;;16.65;2.90;;;5.90;99.90;;;;;;4965648;28;20406;-79
2023/12/20 00:11:32;;;;;;;16.33;3.40;;;5.90;99.90;;;;;;4965704;28;20100;-78
2023/12/20 00:13:58;;;;;;;16.20;3.10;;;5.90;99.90;;;;;;4979416;28;20391;-78
2023/12/20 00:16:24;;;;;;;16.25;3.58;;;5.90;99.90;;;;;;4980735;28;20141;-79
2023/12/20 00:18:50;;;;;;;21.65;3.38;;;5.90;99.90;;;;;;4980103;28;20074;-79
2023/12/20 00:21:16;;;;;;;22.38;3.45;;;5.90;99.90;;;;;;4962691;28;20679;-79
2023/12/20 00:23:41;;;;;;;18.20;3.05;;;5.80;99.90;;;;;;4981680;28;20126;-79
2023/12/20 00:26:07;;;;;;;16.35;3.22;;;5.80;99.90;;;;;;4981879;28;20160;-78
2023/12/20 00:28:33;;;;;;;18.40;3.53;;;5.80;99.90;;;;;;5011774;28;20043;-79
2023/12/20 00:30:59;;;;;;;19.90;4.13;;;5.80;99.90;;;;;;4963337;28;20099;-78
2023/12/20 00:33:27;;;;;;;15.95;4.18;;;5.70;99.90;;;;;;4963839;28;20048;-78
2023/12/20 00:35:53;;;;;;;19.85;3.20;;;5.70;99.90;;;;;;4965836;28;20413;-78
2023/12/20 00:38:19;;;;;;;17.45;3.83;;;5.70;99.90;;;;;;4979971;28;20031;-78
2023/12/20 00:40:45;;;;;;;25.30;4.28;;;5.70;99.90;;;;;;4980065;28;20035;-78
2023/12/20 00:43:10;;;;;;;17.80;3.50;;;5.60;99.90;;;;;;4982263;28;20049;-78
2023/12/20 00:45:37;;;;;;;24.63;4.40;;;5.60;99.90;;;;;;4960845;28;20038;-77
2023/12/20 00:48:03;;;;;;;28.70;4.50;;;5.60;99.90;;;;;;4965324;28;20082;-78
2023/12/20 00:50:29;;;;;;;16.48;3.45;;;5.60;99.90;;;;;;4979394;28;20470;-78
2023/12/20 00:52:54;;;;;;;17.50;4.03;;;5.60;99.90;;;;;;4983086;28;20138;-78
2023/12/20 00:55:20;;;;;;;21.55;3.72;;;5.60;99.90;;;;;;4981726;28;20042;-78
2023/12/20 00:57:47;;;;;;;20.23;3.80;;;5.60;99.90;;;;;;4978989;28;20122;-77
2023/12/20 01:00:13;;;;;;;20.08;3.63;;;5.60;99.90;;;;;;4963528;28;20454;-78
2023/12/20 01:02:39;;;;;;;21.45;3.78;;;5.60;99.90;;;;;;5011328;28;20047;-75
2023/12/20 01:05:05;;;;;;;19.63;3.65;;;5.60;99.90;;;;;;4984241;28;20046;-75
2023/12/20 01:07:31;;;;;;;16.25;3.50;;;5.60;99.90;;;;;;4978748;28;20042;-75
2023/12/20 01:09:56;;;;;;;20.55;4.10;;;5.60;99.90;;;;;;4965695;28;20053;-75
2023/12/20 01:12:22;;;;;;;18.35;3.22;;;5.70;99.90;;;;;;4981735;28;20046;-77
2023/12/20 01:14:48;;;;;;;21.65;4.38;;;5.70;99.90;;;;;;4980352;28;20742;-77
2023/12/20 01:17:14;;;;;;;21.02;4.10;;;5.70;99.90;;;;;;4995620;28;20139;-77
2023/12/20 01:19:40;;;;;;;17.63;3.78;;;5.80;99.90;;;;;;5012115;28;20066;-78
2023/12/20 01:22:06;;;;;;;21.15;4.13;;;5.70;99.90;;;;;;5012671;28;20099;-78
2023/12/20 01:24:32;;;;;;;19.20;4.28;;;5.70;99.90;;;;;;4979029;28;20098;-76
2023/12/20 01:26:58;;;;;;;17.83;4.03;;;5.60;99.90;;;;;;5013401;28;20057;-77
2023/12/20 01:29:23;;;;;;;24.02;4.40;;;5.70;99.90;;;;;;4961558;28;20046;-78
2023/12/20 01:31:50;;;;;;;19.27;4.00;;;5.60;99.90;;;;;;4981950;28;20486;-77
2023/12/20 01:34:15;;;;;;;20.42;3.50;;;5.60;99.90;;;;;;4979698;28;20179;-77
2023/12/20 01:36:41;;;;;;;20.75;4.93;;;5.60;99.90;;;;;;4965291;28;20069;-77
2023/12/20 01:39:07;;;;;;;20.30;4.25;;;5.60;99.90;;;;;;4978972;28;20050;-77
2023/12/20 01:41:33;;;;;;;19.23;3.75;;;5.60;99.90;;;;;;4980321;28;20439;-77
2023/12/20 01:43:59;;;;;;;26.20;4.55;;;5.70;99.90;;;;;;4962498;28;20058;-77
2023/12/20 01:46:25;;;;;;;19.85;3.88;;;5.70;99.90;;;;;;4979816;28;20125;-77
2023/12/20 01:48:52;;;;;;;20.35;4.05;;;5.70;99.90;;;;;;4964172;28;20050;-77
2023/12/20 01:51:19;;;;;;;26.00;5.28;;;5.70;99.90;;;;;;5010544;28;20120;-76
2023/12/20 01:53:45;;;;;;;17.13;4.38;;;5.60;99.90;;;;;;4962388;28;20035;-77
2023/12/20 01:56:11;;;;;;;20.85;4.25;;;5.60;99.90;;;;;;4963507;28;20046;-77
2023/12/20 01:58:46;;;;;;;23.17;4.28;;;5.60;99.90;;;;;;4964071;28;20082;-77
2023/12/20 02:01:13;;;;;;;20.90;4.28;;;5.60;99.90;;;;;;4980466;28;20160;-77
2023/12/20 02:03:43;;;;;;;23.27;4.82;;;5.60;99.90;;;;;;4979569;28;20070;-77
2023/12/20 02:06:09;;;;;;;18.88;4.32;;;5.70;99.90;;;;;;4981616;28;20072;-76
2023/12/20 02:08:36;;;;;;;24.85;4.93;;;5.70;99.90;;;;;;5010808;28;20088;-76
2023/12/20 02:11:02;;;;;;;29.08;5.80;;;5.80;99.90;;;;;;4980338;28;20054;-74
2023/12/20 02:13:27;;;;;;;23.02;4.45;;;5.70;99.90;;;;;;4975552;28;20043;-76
2023/12/20 02:15:54;;;;;;;18.58;4.60;;;5.70;99.90;;;;;;4982125;28;20104;-77
2023/12/20 02:18:20;;;;;;;23.02;4.93;;;5.80;99.90;;;;;;4978592;28;20050;-77
2023/12/20 02:20:46;;;;;;;22.05;4.57;;;5.80;99.90;;;;;;4979225;28;20057;-77
2023/12/20 02:23:11;;;;;;;22.63;4.53;;;5.90;99.90;;;;;;4978965;28;20046;-77
2023/12/20 02:25:37;;;;;;;19.90;4.53;;;5.90;99.90;;;;;;4979762;28;20046;-77
2023/12/20 02:28:04;;;;;;;18.25;3.33;;;5.90;99.90;;;;;;4979191;28;20054;-77
2023/12/20 02:30:30;;;;;;;20.17;4.82;;;5.90;99.90;;;;;;4969087;28;20552;-77
2023/12/20 02:32:56;;;;;;;20.17;4.03;;;6.00;99.90;;;;;;4982907;28;20050;-77
2023/12/20 02:35:22;;;;;;;18.95;4.20;;;5.90;99.90;;;;;;4987721;28;20049;-77
2023/12/20 02:37:48;;;;;;;27.13;4.95;;;6.10;99.90;;;;;;4986320;28;20046;-76
2023/12/20 02:40:13;;;;;;;31.00;5.32;;;6.00;99.90;;;;;;4985119;28;20464;-74
2023/12/20 02:42:39;;;;;;;27.08;5.63;;;6.00;99.90;;;;;;4966169;28;20038;-74
2023/12/20 02:45:08;;;;;;;27.40;4.35;;;6.00;99.90;;;;;;4961647;28;20046;-75
2023/12/20 02:47:34;;;;;;;28.80;4.88;;;6.00;99.90;;;;;;4988672;28;20409;-75
2023/12/20 02:50:00;;;;;;;34.70;5.55;;;6.00;99.90;;;;;;4983547;28;20303;-74
2023/12/20 02:52:27;;;;;;;23.85;6.50;;;6.10;99.90;;;;;;4996035;28;20053;-75
2023/12/20 02:54:53;;;;;;;31.92;5.22;;;6.00;99.90;;;;;;4980710;28;20047;-75
2023/12/20 02:57:21;;;;;;;22.38;5.15;;;6.00;99.90;;;;;;4984048;28;20760;-76
2023/12/20 02:59:47;;;;;;;27.65;5.60;;;6.00;99.90;;;;;;5018199;28;20045;-74
2023/12/20 03:02:13;;;;;;;29.42;5.97;;;6.00;99.90;;;;;;4981126;28;20440;-74
2023/12/20 03:04:39;;;;;;;27.60;5.10;;;6.00;99.90;;;;;;4985664;28;20043;-74
2023/12/20 03:07:04;;;;;;;28.15;5.70;;;6.00;99.90;;;;;;4984544;28;20129;-74
2023/12/20 03:09:30;;;;;;;27.67;5.57;;;6.00;99.90;;;;;;4987231;28;20112;-74
2023/12/20 03:11:56;;;;;;;22.17;4.95;;;6.00;99.90;;;;;;4969108;28;20410;-74
2023/12/20 03:14:22;;;;;;;24.58;4.90;;;6.00;99.90;;;;;;4984359;28;20087;-74
2023/12/20 03:16:50;;;;;;;24.58;5.07;;;6.00;99.90;;;;;;4965217;28;20647;-74
2023/12/20 03:19:17;;;;;;;26.17;5.45;;;5.90;99.90;;;;;;4984412;28;20050;-74
2023/12/20 03:21:43;;;;;;;35.03;5.97;;;5.90;99.90;;;;;;4985326;28;20589;-77
2023/12/20 03:24:08;;;;;;;30.08;6.15;;;5.90;99.90;;;;;;4958400;28;20038;-76
2023/12/20 03:26:34;;;;;;;25.83;5.43;;;5.90;99.90;;;;;;4981084;28;20073;-76
2023/12/20 03:29:00;;;;;;;32.08;6.55;;;5.90;99.90;;;;;;4985796;28;20133;-76
2023/12/20 03:31:26;;;;;;;29.55;6.07;;;5.80;99.90;;;;;;4970447;28;20050;-76
2023/12/20 03:33:53;;;;;;;30.60;6.20;;;5.80;99.90;;;;;;4961823;28;20058;-76
2023/12/20 03:36:20;;;;;;;31.20;6.60;;;5.90;99.90;;;;;;4968893;28;20050;-76
2023/12/20 03:38:45;;;;;;;28.05;5.80;;;5.90;99.90;;;;;;4981222;28;20209;-76
2023/12/20 03:41:11;;;;;;;34.97;6.20;;;5.90;99.90;;;;;;4976503;28;20042;-77
2023/12/20 03:43:37;;;;;;;33.25;6.40;;;5.90;99.90;;;;;;4978190;28;20658;-77
2023/12/20 03:46:03;;;;;;;27.83;5.65;;;6.00;99.90;;;;;;4983827;28;20078;-75
2023/12/20 03:48:33;;;;;;;28.77;6.40;;;6.00;99.90;;;;;;4981475;28;20038;-76
2023/12/20 03:50:58;;;;;;;28.42;6.82;;;6.00;99.90;;;;;;5011590;28;20105;-78
2023/12/20 03:53:24;;;;;;;32.03;6.88;;;6.10;99.90;;;;;;4981707;28;20039;-76
2023/12/20 03:55:50;;;;;;;25.75;6.30;;;6.10;99.90;;;;;;4995382;28;20463;-76
2023/12/20 03:58:16;;;;;;;29.80;6.25;;;6.10;99.90;;;;;;4975449;28;20521;-77
2023/12/20 04:00:41;;;;;;;38.38;6.85;;;6.20;99.90;;;;;;4964919;28;20121;-76
2023/12/20 04:03:07;;;;;;;28.60;6.00;;;6.20;99.90;;;;;;4967888;28;20046;-76
2023/12/20 04:05:33;;;;;;;35.10;7.25;;;6.20;99.90;;;;;;4980072;28;20100;-77
2023/12/20 04:08:01;;;;;;;32.28;6.80;;;6.20;99.90;;;;;;4964266;28;20046;-76
2023/12/20 04:10:27;;;;;;;42.47;7.55;;;6.20;99.90;;;;;;4981418;28;20050;-76
2023/12/20 04:12:54;;;;;;;29.48;6.57;;;6.20;99.90;;;;;;4980900;28;20057;-76
2023/12/20 04:15:20;;;;;;;31.77;6.93;;;6.20;99.90;;;;;;5011416;28;20070;-76
2023/12/20 04:17:46;;;;;;;30.15;6.22;;;6.20;99.90;;;;;;4984033;28;20078;-76
2023/12/20 04:20:12;;;;;;;30.15;5.60;;;6.20;99.90;;;;;;4959430;28;20475;-76
2023/12/20 04:22:37;;;;;;;27.67;6.07;;;6.20;99.90;;;;;;4983347;28;20046;-77
2023/12/20 04:25:03;;;;;;;32.90;6.43;;;6.20;99.90;;;;;;4979893;28;20134;-76
2023/12/20 04:27:29;;;;;;;30.70;7.00;;;6.30;99.90;;;;;;4982779;28;20043;-76
2023/12/20 04:29:55;;;;;;;30.60;6.70;;;6.30;99.90;;;;;;4979803;28;20069;-76
2023/12/20 04:32:20;;;;;;;34.65;6.90;;;6.30;99.90;;;;;;4978515;28;20493;-76
2023/12/20 04:34:46;;;;;;;30.15;6.90;;;6.30;99.90;;;;;;4978160;28;20406;-76
2023/12/20 04:37:12;;;;;;;27.38;6.43;;;6.30;99.90;;;;;;4982632;28;20043;-76
2023/12/20 04:39:38;;;;;;;29.38;6.32;;;6.30;99.90;;;;;;4978731;28;20077;-76
2023/12/20 04:42:04;;;;;;;40.38;7.15;;;6.40;99.90;;;;;;4992439;28;20099;-76
2023/12/20 04:44:30;;;;;;;36.08;7.60;;;6.40;99.90;;;;;;4980470;28;20050;-76
2023/12/20 04:46:56;;;;;;;32.40;7.43;;;6.40;99.90;;;;;;4976798;28;20553;-75
2023/12/20 04:49:22;;;;;;;30.20;6.63;;;6.40;99.90;;;;;;5010234;28;20567;-76
2023/12/20 04:51:48;;;;;;;32.00;5.85;;;6.30;99.90;;;;;;4976530;28;20414;-76
2023/12/20 04:54:13;;;;;;;31.23;6.55;;;6.30;99.90;;;;;;4965334;28;20042;-75
2023/12/20 04:56:39;;;;;;;27.02;6.13;;;6.40;99.90;;;;;;4978949;28;20046;-75
2023/12/20 04:59:05;;;;;;;30.00;6.43;;;6.40;99.90;;;;;;4962772;28;20503;-75
2023/12/20 05:01:31;;;;;;;31.77;6.60;;;6.30;99.90;;;;;;4980385;28;20046;-76
2023/12/20 05:03:57;;;;;;;36.75;5.93;;;6.40;99.90;;;;;;4963466;28;20045;-75
2023/12/20 05:06:22;;;;;;;38.00;7.18;;;6.40;99.90;;;;;;4978725;28;20042;-76
2023/12/20 05:08:48;;;;;;;30.00;6.30;;;6.50;99.90;;;;;;4978405;28;20074;-76
2023/12/20 05:11:15;;;;;;;29.75;6.85;;;6.50;99.90;;;;;;4978994;28;20397;-76
2023/12/20 05:13:40;;;;;;;26.48;6.05;;;6.50;99.90;;;;;;4977734;28;20045;-76
2023/12/20 05:16:09;;;;;;;30.50;7.15;;;6.50;99.90;;;;;;4964979;28;20050;-76
2023/12/20 05:18:35;;;;;;;28.85;6.47;;;6.50;99.90;;;;;;4978338;28;20121;-76
2023/12/20 05:21:01;;;;;;;27.58;6.70;;;6.60;99.90;;;;;;4980182;28;20137;-75
2023/12/20 05:23:26;;;;;;;31.65;7.28;;;6.50;99.90;;;;;;4979755;28;20402;-77
2023/12/20 05:25:52;;;;;;;28.35;7.15;;;6.60;99.90;;;;;;5012019;28;20127;-75
2023/12/20 05:28:18;;;;;;;31.15;6.05;;;6.60;99.90;;;;;;4963198;28;20070;-75
2023/12/20 05:30:44;;;;;;;27.92;6.03;;;6.70;99.90;;;;;;5010184;28;20042;-75
2023/12/20 05:33:09;;;;;;;30.08;6.45;;;6.70;99.90;;;;;;4978354;28;20121;-74
2023/12/20 05:35:35;;;;;;;29.10;6.13;;;6.70;99.90;;;;;;4982019;28;20035;-75
2023/12/20 05:38:01;;;;;;;31.88;6.47;;;6.70;99.90;;;;;;4963859;28;20375;-75
2023/12/20 05:40:27;;;;;;;30.17;6.40;;;6.80;99.90;;;;;;4975440;28;20056;-75
2023/12/20 05:42:52;;;;;;;20.90;5.28;;;6.80;99.90;;;;;;4961477;28;20050;-75
2023/12/20 05:45:18;;;;;;;32.00;6.38;;;6.80;99.90;;;;;;4963177;28;20129;-77
2023/12/20 05:47:44;;;;;;;24.90;6.15;;;7.00;99.90;;;;;;4977139;28;20039;-76
2023/12/20 05:50:10;;;;;;;25.30;6.53;;;6.90;99.90;;;;;;4980504;28;20061;-76
2023/12/20 05:52:35;;;;;;;27.05;7.00;;;6.90;99.90;;;;;;4963623;28;20132;-76
2023/12/20 05:55:01;;;;;;;27.45;6.25;;;6.90;99.90;;;;;;4979407;28;20035;-76
2023/12/20 05:57:27;;;;;;;27.77;6.55;;;6.90;99.90;;;;;;4979129;28;20053;-76
2023/12/20 05:59:53;;;;;;;27.48;6.32;;;7.00;99.90;;;;;;4963148;28;20449;-76
2023/12/20 06:02:19;;;;;;;27.25;6.25;;;7.00;99.90;;;;;;5010617;28;20057;-76
2023/12/20 06:04:45;;;;;;;24.00;6.10;;;7.00;99.90;;;;;;4978964;28;20047;-76
2023/12/20 06:07:14;;;;;;;31.08;7.10;;;7.00;99.90;;;;;;4957990;28;20115;-76
2023/12/20 06:09:40;;;;;;;27.65;6.13;;;7.00;99.90;;;;;;4978438;28;20049;-76
2023/12/20 06:12:08;;;;;;;24.02;5.63;;;7.00;99.90;;;;;;4977400;28;20042;-76
2023/12/20 06:14:34;;;;;;;29.70;6.43;;;7.00;99.90;;;;;;4976653;28;20092;-75
2023/12/20 06:17:01;;;;;;;26.58;5.55;;;7.10;99.90;;;;;;4976808;28;20566;-74
2023/12/20 06:19:27;;;;;;;27.67;7.03;;;7.10;99.90;;;;;;4975874;28;20050;-74
2023/12/20 06:21:53;;;;;;;32.30;5.45;;;7.10;99.90;;;;;;4978785;28;20086;-75
2023/12/20 06:24:18;;;;;;;32.22;7.05;;;7.10;99.90;;;;;;4962713;28;20474;-75
2023/12/20 06:26:44;;;;;;;26.65;5.90;;;7.10;99.90;;;;;;4979235;28;20038;-75
2023/12/20 06:29:10;;;;;;;25.52;5.82;;;7.10;99.90;;;;;;4992843;28;20092;-75
2023/12/20 06:31:36;;;;;;;29.42;5.93;;;7.10;99.90;;;;;;4977976;28;20042;-75
2023/12/20 06:34:02;;;;;;;26.90;6.38;;;7.10;99.90;;;;;;5014212;28;20050;-75
2023/12/20 06:36:27;;;;;;;26.70;5.60;;;7.10;99.90;;;;;;4974826;28;20123;-77
2023/12/20 06:38:53;;;;;;;24.40;5.97;;;7.10;99.90;;;;;;4980722;28;20053;-77
2023/12/20 06:41:19;;;;;;;27.52;6.45;;;7.20;99.90;;;;;;4963130;28;20053;-74
2023/12/20 06:43:45;;;;;;;23.13;6.10;;;7.20;99.90;;;;;;4975707;28;20227;-73
2023/12/20 06:46:13;;;;;;;35.13;6.80;;;7.20;99.90;;;;;;4994638;28;20042;-74
2023/12/20 06:48:39;;;;;;;24.50;5.95;;;7.20;99.90;;;;;;5009031;28;20039;-74
2023/12/20 06:51:05;;;;;;;22.83;6.03;;;7.20;99.90;;;;;;4981747;28;20517;-74
2023/12/20 06:53:31;;;;;;;25.63;5.82;;;7.30;99.90;;;;;;4962083;28;20133;-74
2023/12/20 06:55:57;;;;;;;27.15;5.90;;;7.30;99.90;;;;;;4962862;28;20141;-75
2023/12/20 06:58:23;;;;;;;23.73;5.93;;;7.30;99.90;;;;;;4994275;28;20055;-74
2023/12/20 07:00:49;;;;;;;27.42;5.45;;;7.30;99.90;;;;;;4976456;28;20096;-74
2023/12/20 07:03:15;;;;;;;24.08;5.20;;;7.40;99.90;;;;;;4978317;28;20450;-74
2023/12/20 07:05:40;;;;;;;28.38;6.18;;;7.40;99.90;;;;;;4977973;28;20046;-74
2023/12/20 07:08:06;;;;;;;21.77;5.25;;;7.40;99.90;;;;;;4963822;28;20555;-75
2023/12/20 07:10:32;;;;;;;24.23;4.97;;;7.40;99.90;;;;;;4960139;28;20398;-75
2023/12/20 07:12:58;;;;;;;29.10;6.05;;;7.40;99.90;;;;;;4980321;28;20046;-74
2023/12/20 07:15:24;;;;;;;24.63;6.10;;;7.40;99.90;;;;;;4961243;28;20168;-74
2023/12/20 07:17:50;;;;;;;27.80;6.57;;;7.40;99.90;;;;;;4965482;28;20062;-75
2023/12/20 07:20:16;;;;;;;23.63;5.97;;;7.40;99.90;;;;;;4981474;28;20088;-74
2023/12/20 07:22:41;;;;;;;28.33;5.57;;;7.40;99.90;;;;;;4979652;28;20096;-74
2023/12/20 07:25:08;;;;;;;29.98;7.18;;;7.40;99.90;;;;;;4963751;28;20701;-75
2023/12/20 07:27:33;;;;;;;28.80;6.38;;;7.50;99.90;;;;;;4963859;28;20046;-75
2023/12/20 07:29:59;;;;;;;26.02;5.88;;;7.50;99.90;;;;;;4967829;28;20038;-75
2023/12/20 07:32:26;;;;;;;24.33;6.40;;;7.50;99.90;;;;;;4979619;28;20552;-74
2023/12/20 07:34:51;;;;;;;28.27;6.25;;;7.50;99.90;;;;;;5015429;28;20034;-74
2023/12/20 07:37:17;;;;;;;22.30;6.10;;;7.50;99.90;;;;;;4978778;28;20050;-74
2023/12/20 07:39:43;;;;;;;24.73;5.95;;;7.50;99.90;;;;;;5012696;28;20084;-74
2023/12/20 07:42:09;;;;;;;23.20;6.13;;;7.50;99.90;;;;;;4982172;28;20042;-75
2023/12/20 07:44:38;;;;;;;23.38;6.72;;;7.50;99.90;;;;;;4983303;28;20556;-75
2023/12/20 07:47:04;;;;;;;27.20;6.20;;;7.50;99.90;;;;;;4961615;28;21341;-75
2023/12/20 07:49:33;;;;;;;28.02;6.32;;;7.50;99.90;;;;;;4979798;28;20047;-76
2023/12/20 07:51:58;;;;;;;30.92;7.25;;;7.50;99.90;;;;;;5011918;28;20053;-75
2023/12/20 07:54:24;;;;;;;26.23;6.22;;;7.50;99.90;;;;;;4982467;28;20048;-75
2023/12/20 07:56:50;;;;;;;29.42;6.70;;;7.60;99.90;;;;;;4980213;28;20042;-75
2023/12/20 07:59:15;;;;;;;25.00;5.53;;;7.50;99.90;;;;;;4965469;28;20247;-74
2023/12/20 08:01:42;;;;;;;28.45;6.43;;;7.60;99.90;;;;;;4967533;28;20054;-74
2023/12/20 08:04:08;;;;;;;28.50;6.28;;;7.60;99.90;;;;;;5012912;28;20051;-75
2023/12/20 08:06:34;;;;;;;24.08;6.05;;;7.60;99.90;;;;;;5011753;28;20039;-74
2023/12/20 08:09:00;;;;;;;25.00;6.30;;;7.60;99.90;;;;;;4982783;28;20440;-74
2023/12/20 08:11:26;;;;;;;28.92;6.28;;;7.70;99.90;;;;;;5013474;28;20050;-75
2023/12/20 08:13:51;;;;;;;29.75;7.43;;;7.70;99.90;;;;;;5012101;28;20070;-74
2023/12/20 08:16:17;;;;;;;28.60;6.28;;;7.70;99.90;;;;;;5012254;28;20050;-74
2023/12/20 08:18:43;;;;;;;32.22;6.30;;;7.70;99.90;;;;;;4999395;28;20038;-74
2023/12/20 08:21:09;;;;;;;22.70;4.97;;;7.80;99.90;;;;;;4980545;28;20063;-74
2023/12/20 08:23:35;;;;;;;25.73;5.43;;;7.80;99.90;;;;;;4981530;28;20073;-75
2023/12/20 08:26:06;;;;;;;28.60;7.05;;;7.80;99.90;;;;;;4980121;28;20035;-74
2023/12/20 08:28:32;;;;;;;29.58;6.95;;;7.80;99.90;;;;;;4980431;28;20469;-74
2023/12/20 08:30:58;;;;;;;30.40;7.25;;;7.80;99.90;;;;;;4979582;28;20086;-73
2023/12/20 08:33:24;;;;;;;22.42;5.93;;;7.90;99.90;;;;;;4981026;28;20061;-73
2023/12/20 08:35:49;;;;;;;26.60;5.93;;;7.80;99.90;;;;;;4966065;28;20035;-74
2023/12/20 08:38:16;;;;;;;22.02;5.00;;;7.90;99.90;;;;;;4978209;28;20361;-74
2023/12/20 08:40:42;;;;;;;30.15;6.80;;;7.90;99.90;;;;;;4979193;28;20081;-73
2023/12/20 08:43:07;;;;;;;23.63;5.93;;;7.90;99.90;;;;;;4964067;28;20086;-74
2023/12/20 08:45:33;;;;;;;24.45;6.55;;;7.90;99.90;;;;;;4977805;28;20078;-73
2023/12/20 08:47:59;;;;;;;28.13;6.63;;;7.80;99.90;;;;;;4976993;28;20038;-73
2023/12/20 08:50:28;;;;;;;25.20;6.07;;;7.90;99.90;;;;;;4965067;28;20607;-73
2023/12/20 08:52:54;;;;;;;27.38;5.38;;;8.00;99.90;;;;;;4981634;28;20091;-72
2023/12/20 08:55:20;;;;;;;22.40;5.47;;;8.00;99.90;;;;;;4979787;28;20042;-73
2023/12/20 08:57:46;;;;;;;25.38;5.43;;;8.00;99.90;;;;;;4980617;28;20080;-72
2023/12/20 09:00:12;;;;;;;22.25;5.57;;;8.00;99.90;;;;;;4980396;28;20046;-74
2023/12/20 09:02:38;;;;;;;24.48;6.68;;;8.10;99.90;;;;;;4978439;28;20403;-73
2023/12/20 09:05:04;;;;;;;21.13;5.28;;;8.10;99.90;;;;;;4965466;28;20098;-72
2023/12/20 09:07:31;;;;;;;24.08;4.88;;;8.10;99.90;;;;;;4981161;28;20473;-73
2023/12/20 09:09:58;;;;;;;21.33;5.13;;;8.20;99.90;;;;;;4978705;28;20050;-72
2023/12/20 09:12:24;;;;;;;20.75;5.55;;;8.20;99.90;;;;;;4978688;28;20050;-72
2023/12/20 09:14:51;;;;;;;21.60;5.00;;;8.20;99.90;;;;;;4980171;28;20038;-72
2023/12/20 09:17:18;;;;;;;19.63;4.97;;;8.30;99.90;;;;;;4976776;28;20121;-72
2023/12/20 09:19:44;;;;;;;24.63;5.55;;;8.30;99.90;;;;;;4977158;28;20046;-73
2023/12/20 09:22:10;;;;;;;22.40;5.45;;;8.20;99.90;;;;;;4974369;28;20058;-73
2023/12/20 09:24:36;;;;;;;21.88;5.32;;;8.20;99.90;;;;;;4965695;28;20160;-72
2023/12/20 09:27:02;;;;;;;20.25;5.00;;;8.20;99.90;;;;;;4979545;28;20121;-72
2023/12/20 09:29:28;;;;;;;22.80;4.75;;;8.20;99.90;;;;;;4963590;28;20137;-72
2023/12/20 09:31:54;;;;;;;22.33;5.40;;;8.20;99.90;;;;;;4980640;28;20566;-73
2023/12/20 09:34:21;;;;;;;21.27;5.07;;;8.20;99.90;;;;;;4978839;28;20038;-72
2023/12/20 09:36:47;;;;;;;19.25;4.68;;;8.30;99.90;;;;;;4960832;28;20518;-72
2023/12/20 09:39:21;;;;;;;17.65;4.60;;;8.30;99.90;;;;;;4982189;28;20049;-72
2023/12/20 09:42:04;;;;;;;20.70;4.03;;;8.40;99.90;;;;;;4979987;28;20701;-72
2023/12/20 09:44:31;;;;;;;18.45;3.80;;;8.50;99.90;;;;;;4983934;28;20077;-72
2023/12/20 09:46:57;;;;;;;12.40;2.40;;;8.50;99.90;;;;;;4979229;28;20053;-72
2023/12/20 09:49:25;;;;;;;9.68;1.95;;;8.50;99.90;;;;;;4978873;28;20050;-73
2023/12/20 09:51:52;;;;;;;8.77;2.00;;;8.20;99.90;;;;;;4980186;28;20046;-72
2023/12/20 09:54:18;;;;;;;8.98;2.05;;;7.80;99.90;;;;;;4979407;28;20332;-73
2023/12/20 09:56:47;;;;;;;8.32;1.60;;;7.40;99.90;;;;;;4976364;28;20416;-74
2023/12/20 09:59:14;;;;;;;8.30;1.52;;;7.10;99.90;;;;;;4961563;28;20049;-73
2023/12/20 10:01:40;;;;;;;8.60;1.75;;;6.90;99.90;;;;;;4960728;28;20081;-74
2023/12/20 10:04:14;;;;;;;15.07;2.00;;;6.80;99.90;;;;;;4979312;28;20113;-74
2023/12/20 10:06:44;;;;;;;8.48;1.85;;;6.70;99.90;;;;;;4976822;28;20744;-74
2023/12/20 10:09:10;;;;;;;;;;;6.60;99.90;;;;;;4964089;28;20038;-74
2023/12/20 10:11:40;;;;;;;11.35;2.30;;;6.50;99.90;;;;;;4981963;28;19922;-74
2023/12/20 10:14:07;;;;;;;10.73;2.07;;;6.50;99.90;;;;;;4976586;28;20430;-75
2023/12/20 10:16:33;;;;;;;13.95;2.78;;;6.50;99.90;;;;;;4964078;28;20141;-75
2023/12/20 10:19:01;;;;;;;10.15;2.10;;;6.50;99.90;;;;;;4980411;28;20513;-74
2023/12/20 10:21:27;;;;;;;11.35;1.95;;;6.50;99.90;;;;;;4978412;28;20046;-75
2023/12/20 10:23:57;;;;;;;9.88;2.05;;;6.50;99.90;;;;;;4978036;28;20089;-75
2023/12/20 10:26:24;;;;;;;10.90;2.05;;;6.50;99.90;;;;;;4980057;28;20386;-75
2023/12/20 10:28:51;;;;;;;11.77;1.70;;;6.40;99.90;;;;;;4977516;28;20039;-75
2023/12/20 10:31:31;;;;;;;12.45;2.10;;;6.40;99.90;;;;;;4978057;28;20054;-74
2023/12/20 10:33:58;;;;;;;10.02;2.17;;;6.50;99.90;;;;;;4975308;28;20046;-75
2023/12/20 10:36:29;;;;;;;9.77;1.83;;;6.50;99.90;;;;;;4965634;28;20414;-75
2023/12/20 10:38:57;;;;;;;;;;;6.50;99.90;;;;;;4980051;28;20054;-75
2023/12/20 10:41:31;;;;;;;12.23;1.92;;;6.40;99.90;;;;;;4979810;28;19933;-74
2023/12/20 10:44:02;;;;;;;13.68;2.22;;;6.40;99.90;;;;;;4961492;28;20138;-75
2023/12/20 10:46:29;;;;;;;10.15;1.95;;;6.50;99.90;;;;;;4979217;28;20090;-74
2023/12/20 10:48:56;;;;;;;12.68;2.00;;;6.50;99.90;;;;;;4978107;28;20085;-74
2023/12/20 10:51:23;;;;;;;9.23;2.00;;;6.50;99.90;;;;;;4966523;28;20038;-75
2023/12/20 10:53:50;;;;;;;12.27;3.15;;;6.40;99.90;;;;;;4981250;28;20726;-74
2023/12/20 10:56:21;;;;;;;11.90;2.20;;;6.50;99.90;;;;;;4979284;28;20054;-75
2023/12/20 10:58:47;;;;;;;;;;;6.50;99.90;;;;;;4966245;28;20046;-75
2023/12/20 11:01:18;;;;;;;13.07;2.08;;;6.50;99.90;;;;;;4965186;28;19922;-75
2023/12/20 11:03:51;;;;;;;14.10;2.53;;;6.50;99.90;;;;;;4983487;28;20130;-75
2023/12/20 11:06:50;;;;;;;11.30;2.45;;;6.60;99.90;;;;;;4979435;28;20126;-75
2023/12/20 11:09:24;;;;;;;13.90;2.25;;;6.60;99.90;;;;;;4979709;28;20093;-75
2023/12/20 11:12:12;;;;;;;12.52;2.67;;;6.60;99.90;;;;;;4982258;28;20608;-75
2023/12/20 11:14:53;;;;;;;9.77;1.95;;;6.60;99.90;;;;;;4966109;28;20062;-75
2023/12/20 11:17:19;;;;;;;15.15;2.45;;;6.70;99.90;;;;;;4979036;28;20123;-75
2023/12/20 11:19:57;;;;;;;8.45;2.28;;;6.70;99.90;;;;;;4968327;28;20052;-75
2023/12/20 11:22:29;;;;;;;11.30;2.88;;;6.70;99.90;;;;;;5014003;28;20050;-75
2023/12/20 11:25:08;;;;;;;9.52;2.15;;;6.70;99.90;;;;;;4980788;28;20049;-75
2023/12/20 11:27:35;;;;;;;12.18;2.40;;;6.80;99.90;;;;;;5012942;28;20398;-75
2023/12/20 11:30:07;;;;;;;12.75;2.53;;;6.80;99.90;;;;;;4980504;28;20080;-75
2023/12/20 11:32:37;;;;;;;12.38;2.40;;;6.80;99.90;;;;;;4980490;28;20050;-75
2023/12/20 11:35:08;;;;;;;13.45;2.80;;;6.90;99.90;;;;;;4979414;28;20085;-75
2023/12/20 11:37:42;;;;;;;12.45;2.40;;;6.90;99.90;;;;;;4992388;28;20416;-75
2023/12/20 11:40:12;;;;;;;15.43;2.35;;;6.90;99.90;;;;;;4980363;28;21254;-75
2023/12/20 11:42:51;;;;;;;15.98;3.00;;;6.90;99.90;;;;;;4976265;28;20058;-75
2023/12/20 11:45:22;;;;;;;13.02;2.75;;;6.90;99.90;;;;;;4975648;28;20047;-75
2023/12/20 11:47:53;;;;;;;17.98;3.30;;;7.00;99.90;;;;;;4976629;28;20053;-75
2023/12/20 11:50:19;;;;;;;14.35;2.45;;;7.00;99.90;;;;;;5000412;28;20049;-75
2023/12/20 11:52:45;;;;;;;15.40;2.55;;;7.00;99.90;;;;;;4980512;28;20120;-75
2023/12/20 11:55:11;;;;;;;15.02;2.70;;;7.00;99.90;;;;;;5013365;28;20046;-75
2023/12/20 11:57:37;;;;;;;14.88;3.17;;;7.10;99.90;;;;;;4965158;28;20156;-74
2023/12/20 12:00:04;;;;;;;15.70;3.08;;;7.10;99.90;;;;;;4963593;28;20092;-75
2023/12/20 12:02:30;;;;;;;13.43;2.67;;;7.10;99.90;;;;;;4977318;28;20432;-74
2023/12/20 12:04:58;;;;;;;11.77;2.63;;;7.10;99.90;;;;;;5006958;28;20172;-75
2023/12/20 12:07:24;;;;;;;15.38;2.97;;;7.10;99.90;;;;;;4983536;28;20062;-74
2023/12/20 12:09:50;;;;;;;13.18;2.40;;;7.10;99.90;;;;;;5001190;28;20044;-74
2023/12/20 12:12:19;;;;;;;17.02;3.35;;;7.10;99.90;;;;;;4981814;28;20381;-75
2023/12/20 12:14:46;;;;;;;16.10;2.90;;;7.10;99.90;;;;;;4975967;28;20414;-74
2023/12/20 12:17:13;;;;;;;14.68;3.15;;;7.20;99.90;;;;;;5012961;28;20354;-74
2023/12/20 12:19:40;;;;;;;12.32;2.72;;;7.20;99.90;;;;;;4993339;28;20121;-75
2023/12/20 12:22:13;;;;;;;19.40;3.13;;;7.20;99.90;;;;;;4980135;28;20121;-75
2023/12/20 12:24:47;;;;;;;13.98;3.13;;;7.30;99.90;;;;;;4965138;28;20035;-75
2023/12/20 12:27:16;;;;;;;11.13;1.77;;;7.30;99.90;;;;;;4983832;28;20089;-74
2023/12/20 12:30:03;;;;;;;14.73;2.75;;;7.20;99.90;;;;;;5010855;28;20042;-74
2023/12/20 12:32:29;;;;;;;10.68;2.15;;;7.30;99.90;;;;;;4980483;28;20043;-74
2023/12/20 12:34:55;;;;;;;14.98;3.13;;;7.20;99.90;;;;;;4957671;28;20051;-74
2023/12/20 12:37:24;;;;;;;16.88;3.35;;;7.20;99.90;;;;;;4978785;28;20096;-74
2023/12/20 12:39:49;;;;;;;16.10;2.80;;;7.20;99.90;;;;;;4979307;28;20054;-74
2023/12/20 12:42:15;;;;;;;17.38;3.22;;;7.30;99.90;;;;;;4980624;28;20393;-74
2023/12/20 12:44:41;;;;;;;17.05;3.10;;;7.20;99.90;;;;;;4982013;28;20512;-74
2023/12/20 12:47:07;;;;;;;13.63;2.70;;;7.30;99.90;;;;;;4981029;28;20125;-75